Time;durP1;ratioP1;P1;durP2;ratioP2;P2;SDS_P1;SDS_P2;PMS_P1;PMS_P2;Temp;Humidity;BMP_temperature;BMP_pressure;BME280_temperature;BME280_humidity;BME280_pressure;Samples;Min_cycle;Max_cycle;Signal;HPM_P1;HPM_P2
2022/10/20 00:01:23;;;;;;;19.60;7.03;;;12.60;99.90;;;;;;5046371;28;20017;-62
2022/10/20 00:03:49;;;;;;;21.50;8.32;;;12.70;99.90;;;;;;5048027;28;20037;-60
2022/10/20 00:06:22;;;;;;;21.00;7.40;;;13.00;99.90;;;;;;5046411;28;20028;-56
2022/10/20 00:08:48;;;;;;;20.30;7.20;;;12.80;99.90;;;;;;5049367;28;20035;-60
2022/10/20 00:11:16;;;;;;;26.75;7.82;;;13.00;99.90;;;;;;5048875;28;20124;-57
2022/10/20 00:13:44;;;;;;;14.77;8.20;;;12.90;99.90;;;;;;5047233;28;20045;-60
2022/10/20 00:16:10;;;;;;;23.95;7.38;;;12.80;99.90;;;;;;5048838;28;20045;-57
2022/10/20 00:18:37;;;;;;;13.32;6.55;;;12.70;99.90;;;;;;5032406;28;20576;-58
2022/10/20 00:21:12;;;;;;;16.50;7.10;;;12.70;99.90;;;;;;5047267;28;20033;-58
2022/10/20 00:23:37;;;;;;;13.32;8.13;;;12.70;99.90;;;;;;5046900;28;20021;-60
2022/10/20 00:26:10;;;;;;;17.30;7.28;;;12.60;99.90;;;;;;5045533;28;20037;-59
2022/10/20 00:28:35;;;;;;;15.00;6.78;;;12.70;99.90;;;;;;5052258;28;20055;-61
2022/10/20 00:31:02;;;;;;;18.38;6.88;;;12.70;99.90;;;;;;5052240;28;20060;-62
2022/10/20 00:33:28;;;;;;;14.55;7.22;;;12.70;99.90;;;;;;5052752;28;20048;-54
2022/10/20 00:35:53;;;;;;;13.80;7.22;;;12.60;99.90;;;;;;5050457;28;20028;-60
2022/10/20 00:38:19;;;;;;;18.75;7.38;;;12.60;99.90;;;;;;5047672;28;20021;-59
2022/10/20 00:40:44;;;;;;;22.52;7.85;;;12.50;99.90;;;;;;5049936;28;20025;-54
2022/10/20 00:43:12;;;;;;;12.05;6.65;;;12.60;99.90;;;;;;5048994;28;20021;-58
2022/10/20 00:45:39;;;;;;;17.15;7.07;;;12.70;99.90;;;;;;5049066;28;20485;-60
2022/10/20 00:48:11;;;;;;;18.58;6.65;;;12.70;99.90;;;;;;5044494;28;20174;-60
2022/10/20 00:50:45;;;;;;;15.77;6.55;;;12.60;99.90;;;;;;5032242;28;20498;-61
2022/10/20 00:53:11;;;;;;;24.92;8.43;;;12.60;99.90;;;;;;5046129;28;20374;-61
2022/10/20 00:55:42;;;;;;;16.67;6.88;;;12.60;99.90;;;;;;5045537;28;20078;-62
2022/10/20 00:58:08;;;;;;;14.05;7.57;;;12.40;99.90;;;;;;5045728;28;20472;-57
2022/10/20 01:00:36;;;;;;;15.43;6.88;;;12.60;99.90;;;;;;5046081;28;20418;-61
2022/10/20 01:03:03;;;;;;;16.98;7.18;;;12.50;99.90;;;;;;5049789;28;20028;-60
2022/10/20 01:05:28;;;;;;;17.77;6.55;;;12.40;99.90;;;;;;5047425;28;20041;-61
2022/10/20 01:07:54;;;;;;;13.13;7.78;;;12.40;99.90;;;;;;5048080;28;20079;-61
2022/10/20 01:10:21;;;;;;;13.48;6.68;;;12.40;99.90;;;;;;5047598;28;20017;-59
2022/10/20 01:13:02;;;;;;;16.33;6.68;;;12.40;99.90;;;;;;5050018;28;20063;-60
2022/10/20 01:15:58;;;;;;;23.73;6.88;;;12.30;99.90;;;;;;5045596;28;20042;-61
2022/10/20 01:18:43;;;;;;;21.75;6.53;;;12.30;99.90;;;;;;5046411;28;20017;-61
2022/10/20 01:21:44;;;;;;;19.05;7.05;;;12.30;99.90;;;;;;5049342;28;20020;-62
2022/10/20 01:24:31;;;;;;;17.88;6.60;;;12.30;99.90;;;;;;5046104;28;20029;-59
2022/10/20 01:27:27;;;;;;;13.98;6.40;;;12.20;99.90;;;;;;5045459;28;20021;-58
2022/10/20 01:29:55;;;;;;;13.63;6.13;;;12.30;99.90;;;;;;5045656;28;20036;-58
2022/10/20 01:32:49;;;;;;;21.98;6.30;;;12.30;99.90;;;;;;5047547;28;20025;-62
2022/10/20 01:35:37;;;;;;;16.33;7.43;;;12.30;99.90;;;;;;5046710;28;20036;-61
2022/10/20 01:38:21;;;;;;;12.10;6.82;;;12.30;99.90;;;;;;5048481;28;20584;-60
2022/10/20 01:40:49;;;;;;;16.38;7.25;;;12.20;99.90;;;;;;5048897;28;20025;-58
2022/10/20 01:43:19;;;;;;;17.92;7.20;;;12.10;99.90;;;;;;5047640;28;20124;-58
2022/10/20 01:45:47;;;;;;;18.08;7.47;;;12.10;99.90;;;;;;5046845;28;20082;-61
2022/10/20 01:48:16;;;;;;;18.42;7.65;;;12.10;99.90;;;;;;5047755;28;20028;-60
2022/10/20 01:50:44;;;;;;;16.73;6.40;;;12.10;99.90;;;;;;5043649;28;20448;-60
2022/10/20 01:53:10;;;;;;;19.60;7.30;;;12.20;99.90;;;;;;5051250;28;20021;-61
2022/10/20 01:55:37;;;;;;;15.63;6.70;;;12.10;99.90;;;;;;5047847;28;20380;-62
2022/10/20 01:58:27;;;;;;;16.45;6.82;;;12.10;99.90;;;;;;5042214;28;20039;-60
2022/10/20 02:00:56;;;;;;;17.83;6.97;;;12.20;99.90;;;;;;5044384;28;20494;-63
2022/10/20 02:03:45;;;;;;;14.27;7.45;;;12.10;99.90;;;;;;5045920;28;20086;-58
2022/10/20 02:06:18;;;;;;;16.88;6.55;;;12.10;99.90;;;;;;5047625;28;20021;-59
2022/10/20 02:08:49;;;;;;;17.25;7.25;;;12.00;99.90;;;;;;5049908;28;20096;-62
2022/10/20 02:11:50;;;;;;;16.58;6.75;;;12.10;99.90;;;;;;5047007;28;20025;-59
2022/10/20 02:14:19;;;;;;;14.35;6.30;;;11.90;99.90;;;;;;5044480;28;20449;-59
2022/10/20 02:17:00;;;;;;;17.30;7.60;;;11.90;99.90;;;;;;5047531;28;20025;-61
2022/10/20 02:19:31;;;;;;;13.90;6.25;;;11.90;99.90;;;;;;5046201;28;20053;-59
2022/10/20 02:21:57;;;;;;;16.50;6.30;;;11.90;99.90;;;;;;5044704;28;20017;-60
2022/10/20 02:24:32;;;;;;;14.68;6.40;;;12.00;99.90;;;;;;5044429;28;20048;-58
2022/10/20 02:27:02;;;;;;;15.57;7.10;;;11.90;99.90;;;;;;5047680;28;20017;-59
2022/10/20 02:29:34;;;;;;;24.65;6.93;;;12.00;99.90;;;;;;5045200;28;20100;-58
2022/10/20 02:32:00;;;;;;;18.38;6.40;;;12.00;99.90;;;;;;5045840;28;20111;-59
2022/10/20 02:34:26;;;;;;;11.88;6.05;;;12.00;99.90;;;;;;5046144;28;20115;-59
2022/10/20 02:36:56;;;;;;;18.50;6.72;;;11.80;99.90;;;;;;5043564;28;20153;-61
2022/10/20 02:39:21;;;;;;;11.93;7.53;;;11.90;99.90;;;;;;5047615;28;20121;-61
2022/10/20 02:41:47;;;;;;;22.00;6.75;;;11.90;99.90;;;;;;5041188;28;20548;-59
2022/10/20 02:44:12;;;;;;;11.75;6.80;;;11.80;99.90;;;;;;5044947;28;20036;-59
2022/10/20 02:46:38;;;;;;;13.30;6.03;;;11.70;99.90;;;;;;5044591;28;20062;-62
2022/10/20 02:49:04;;;;;;;19.23;6.53;;;11.90;99.90;;;;;;5047398;28;20033;-60
2022/10/20 02:51:29;;;;;;;12.25;7.03;;;11.80;99.90;;;;;;5043603;28;20044;-58
2022/10/20 02:53:55;;;;;;;19.55;6.80;;;11.80;99.90;;;;;;5046737;28;20060;-59
2022/10/20 02:56:21;;;;;;;14.88;6.05;;;11.90;99.90;;;;;;5044594;28;20033;-61
2022/10/20 02:58:47;;;;;;;16.65;6.53;;;11.90;99.90;;;;;;5043121;28;20017;-63
2022/10/20 03:01:12;;;;;;;16.60;6.22;;;11.80;99.90;;;;;;5044677;28;20013;-60
2022/10/20 03:03:38;;;;;;;18.85;6.63;;;11.70;99.90;;;;;;5046072;28;20035;-61
2022/10/20 03:06:12;;;;;;;12.63;5.78;;;11.70;99.90;;;;;;5041587;28;20144;-59
2022/10/20 03:08:38;;;;;;;11.13;6.00;;;11.70;99.90;;;;;;5042279;28;20063;-60
2022/10/20 03:11:04;;;;;;;13.10;6.20;;;11.70;99.90;;;;;;5042922;28;20478;-60
2022/10/20 03:13:30;;;;;;;25.20;7.25;;;11.80;99.90;;;;;;5043622;28;20040;-60
2022/10/20 03:15:55;;;;;;;11.65;6.47;;;11.80;99.90;;;;;;5041987;28;20044;-61
2022/10/20 03:18:21;;;;;;;15.77;6.47;;;11.70;99.90;;;;;;5044236;28;20033;-62
2022/10/20 03:20:50;;;;;;;11.88;5.68;;;11.70;99.90;;;;;;5044353;28;20074;-59
2022/10/20 03:23:15;;;;;;;11.75;6.40;;;11.70;99.90;;;;;;5046352;28;20024;-60
2022/10/20 03:25:41;;;;;;;15.13;6.32;;;11.60;99.90;;;;;;5042892;28;20049;-61
2022/10/20 03:28:06;;;;;;;13.00;6.25;;;11.60;99.90;;;;;;5048962;28;20029;-63
2022/10/20 03:30:32;;;;;;;17.65;7.22;;;11.60;99.90;;;;;;5046202;28;20712;-56
2022/10/20 03:32:57;;;;;;;13.63;6.57;;;11.70;99.90;;;;;;5039361;28;20032;-57
2022/10/20 03:35:23;;;;;;;16.52;5.88;;;11.80;99.90;;;;;;5044926;28;20104;-58
2022/10/20 03:37:48;;;;;;;13.65;6.38;;;11.70;99.90;;;;;;5047908;28;20021;-61
2022/10/20 03:40:14;;;;;;;12.23;6.15;;;11.70;99.90;;;;;;5047584;28;20025;-61
2022/10/20 03:42:39;;;;;;;11.68;5.47;;;11.70;99.90;;;;;;5047743;28;20052;-60
2022/10/20 03:45:06;;;;;;;10.02;6.05;;;11.70;99.90;;;;;;5047931;28;20033;-58
2022/10/20 03:47:31;;;;;;;14.05;6.03;;;11.70;99.90;;;;;;5047372;28;20367;-59
2022/10/20 03:49:57;;;;;;;17.35;6.38;;;11.70;99.90;;;;;;5051900;28;20036;-59
2022/10/20 03:52:22;;;;;;;18.35;6.60;;;11.60;99.90;;;;;;5050591;28;20417;-58
2022/10/20 03:54:48;;;;;;;11.10;6.32;;;11.70;99.90;;;;;;5047433;28;20031;-60
2022/10/20 03:57:13;;;;;;;10.65;6.05;;;11.60;99.90;;;;;;5050080;28;20033;-59
2022/10/20 03:59:39;;;;;;;14.27;5.75;;;11.60;99.90;;;;;;5050340;28;20144;-56
2022/10/20 04:02:04;;;;;;;11.48;6.03;;;11.60;99.90;;;;;;5052010;28;20028;-61
2022/10/20 04:04:30;;;;;;;12.77;5.78;;;11.60;99.90;;;;;;5050647;28;20383;-58
2022/10/20 04:06:55;;;;;;;9.85;5.85;;;11.60;99.90;;;;;;5046881;28;20043;-57
2022/10/20 04:09:21;;;;;;;12.98;5.78;;;11.50;99.90;;;;;;5047843;28;20705;-58
2022/10/20 04:11:46;;;;;;;8.95;5.13;;;11.50;99.90;;;;;;5049826;28;20044;-57
2022/10/20 04:14:12;;;;;;;24.02;6.38;;;11.40;99.90;;;;;;5051687;28;20044;-61
2022/10/20 04:16:37;;;;;;;12.05;6.10;;;11.40;99.90;;;;;;5049313;28;20021;-61
2022/10/20 04:19:03;;;;;;;17.02;6.20;;;11.40;99.90;;;;;;5050135;28;20596;-59
2022/10/20 04:21:28;;;;;;;10.88;5.85;;;11.40;99.90;;;;;;5049805;28;20048;-62
2022/10/20 04:23:54;;;;;;;15.45;6.40;;;11.50;99.90;;;;;;5050286;28;20103;-61
2022/10/20 04:26:20;;;;;;;9.13;5.68;;;11.40;99.90;;;;;;5050164;28;20037;-62
2022/10/20 04:28:45;;;;;;;12.05;6.45;;;11.30;99.90;;;;;;5049561;28;20042;-60
2022/10/20 04:31:11;;;;;;;13.98;5.72;;;11.40;99.90;;;;;;5046505;28;20032;-59
2022/10/20 04:33:36;;;;;;;10.65;5.57;;;11.40;99.90;;;;;;5052480;28;20044;-58
2022/10/20 04:36:05;;;;;;;21.02;5.78;;;11.40;99.90;;;;;;5047989;28;20029;-58
2022/10/20 04:38:32;;;;;;;9.52;4.97;;;11.40;99.90;;;;;;5048651;28;20114;-61
2022/10/20 04:41:00;;;;;;;12.48;6.32;;;11.40;99.90;;;;;;5044292;28;20021;-58
2022/10/20 04:43:25;;;;;;;16.95;5.90;;;11.50;99.90;;;;;;5049707;28;20021;-59
2022/10/20 04:45:57;;;;;;;11.30;5.43;;;11.50;99.90;;;;;;5046294;28;20544;-60
2022/10/20 04:48:23;;;;;;;11.77;6.07;;;11.60;99.90;;;;;;5045965;28;20487;-58
2022/10/20 04:51:05;;;;;;;14.52;6.32;;;11.60;99.90;;;;;;5041295;28;20043;-61
2022/10/20 04:53:31;;;;;;;12.60;5.57;;;11.70;99.90;;;;;;5048520;28;20044;-60
2022/10/20 04:55:57;;;;;;;21.05;6.03;;;11.80;99.90;;;;;;5046150;28;20013;-57
2022/10/20 04:58:23;;;;;;;11.73;6.03;;;11.80;99.90;;;;;;5047083;28;20033;-60
2022/10/20 05:00:49;;;;;;;14.60;6.07;;;11.80;99.90;;;;;;5045607;28;20070;-61
2022/10/20 05:03:15;;;;;;;9.50;5.57;;;11.80;99.90;;;;;;5043525;28;20013;-55
2022/10/20 05:05:40;;;;;;;11.13;6.47;;;11.80;99.90;;;;;;5038758;28;20029;-59
2022/10/20 05:08:06;;;;;;;13.52;6.57;;;11.70;99.90;;;;;;5039774;28;20028;-60
2022/10/20 05:10:31;;;;;;;12.50;5.82;;;11.70;99.90;;;;;;5049188;28;20111;-61
2022/10/20 05:12:57;;;;;;;19.25;6.07;;;11.60;99.90;;;;;;5049261;28;20044;-60
2022/10/20 05:15:22;;;;;;;15.23;5.72;;;11.50;99.90;;;;;;5048180;28;20588;-62
2022/10/20 05:17:48;;;;;;;8.43;5.00;;;11.50;99.90;;;;;;5051353;28;20036;-62
2022/10/20 05:20:13;;;;;;;11.68;5.68;;;11.50;99.90;;;;;;5048641;28;20079;-62
2022/10/20 05:22:39;;;;;;;11.70;5.35;;;11.50;99.90;;;;;;5047778;28;20075;-59
2022/10/20 05:25:05;;;;;;;14.20;6.40;;;11.40;99.90;;;;;;5047477;28;20513;-58
2022/10/20 05:27:30;;;;;;;15.52;5.82;;;11.40;99.90;;;;;;5042503;28;20039;-62
2022/10/20 05:29:56;;;;;;;18.75;6.25;;;11.40;99.90;;;;;;5042239;28;20087;-62
2022/10/20 05:32:21;;;;;;;15.30;5.65;;;11.40;99.90;;;;;;5031034;28;20025;-55
2022/10/20 05:34:47;;;;;;;11.27;5.95;;;11.40;99.90;;;;;;5043043;28;20375;-62
2022/10/20 05:37:12;;;;;;;14.55;6.07;;;11.30;99.90;;;;;;5047695;28;20036;-59
2022/10/20 05:39:38;;;;;;;12.13;6.20;;;11.40;99.90;;;;;;5051066;28;20024;-59
2022/10/20 05:42:03;;;;;;;15.13;5.78;;;11.40;99.90;;;;;;5055433;28;20029;-60
2022/10/20 05:44:29;;;;;;;15.48;5.75;;;11.30;99.90;;;;;;5048550;28;20095;-58
2022/10/20 05:46:55;;;;;;;14.98;6.53;;;11.30;99.90;;;;;;5048939;28;20036;-60
2022/10/20 05:49:22;;;;;;;10.07;6.55;;;11.20;99.90;;;;;;5047136;28;20138;-61
2022/10/20 05:51:47;;;;;;;13.85;6.60;;;11.30;99.90;;;;;;5051035;28;20025;-55
2022/10/20 05:54:14;;;;;;;23.33;6.95;;;11.30;99.90;;;;;;5047371;28;20543;-59
2022/10/20 05:56:39;;;;;;;9.45;5.75;;;11.30;99.90;;;;;;5048711;28;20490;-59
2022/10/20 05:59:05;;;;;;;13.95;6.40;;;11.30;99.90;;;;;;5048370;28;20047;-60
2022/10/20 06:01:46;;;;;;;16.67;6.85;;;11.40;99.90;;;;;;5047708;28;20021;-61
2022/10/20 06:04:12;;;;;;;16.35;6.90;;;11.30;99.90;;;;;;5052233;28;20041;-61
2022/10/20 06:06:37;;;;;;;12.43;6.25;;;11.30;99.90;;;;;;5050489;28;20116;-59
2022/10/20 06:09:06;;;;;;;20.85;6.18;;;11.30;99.90;;;;;;5057997;28;20506;-57
2022/10/20 06:11:32;;;;;;;24.33;7.47;;;11.30;99.90;;;;;;5053919;28;20112;-59
2022/10/20 06:13:57;;;;;;;13.13;6.10;;;11.40;99.90;;;;;;5055310;28;20100;-59
2022/10/20 06:16:24;;;;;;;17.25;6.50;;;11.40;99.90;;;;;;5050127;28;20108;-58
2022/10/20 06:18:51;;;;;;;9.20;6.28;;;11.40;99.90;;;;;;5049924;28;20029;-61
2022/10/20 06:21:22;;;;;;;15.07;6.43;;;11.40;99.90;;;;;;5053992;28;20013;-60
2022/10/20 06:23:48;;;;;;;18.38;6.90;;;11.40;99.90;;;;;;5049828;28;20142;-58
2022/10/20 06:26:16;;;;;;;19.58;8.15;;;11.40;99.90;;;;;;5042540;28;20035;-61
2022/10/20 06:28:43;;;;;;;12.02;6.45;;;11.50;99.90;;;;;;5045321;28;20049;-59
2022/10/20 06:31:20;;;;;;;11.57;6.25;;;11.50;99.90;;;;;;5049080;28;20105;-61
2022/10/20 06:33:46;;;;;;;25.02;6.75;;;11.50;99.90;;;;;;5037926;28;20033;-59
2022/10/20 06:36:12;;;;;;;14.82;6.93;;;11.50;99.90;;;;;;5046476;28;20378;-57
2022/10/20 06:38:39;;;;;;;19.83;5.90;;;11.50;99.90;;;;;;5049402;28;20033;-60
2022/10/20 06:41:08;;;;;;;13.73;6.68;;;11.60;99.90;;;;;;5045793;28;20100;-62
2022/10/20 06:43:34;;;;;;;23.35;6.50;;;11.60;99.90;;;;;;5046649;28;20025;-58
2022/10/20 06:46:05;;;;;;;17.80;7.03;;;11.60;99.90;;;;;;5048028;28;20037;-59
2022/10/20 06:48:32;;;;;;;19.33;6.88;;;11.60;99.90;;;;;;5044681;28;20040;-58
2022/10/20 06:51:00;;;;;;;14.88;7.25;;;11.60;99.90;;;;;;5049266;28;20044;-59
2022/10/20 06:53:28;;;;;;;18.08;6.43;;;11.60;99.90;;;;;;5048946;28;20399;-58
2022/10/20 06:56:03;;;;;;;17.95;6.75;;;11.70;99.90;;;;;;5047627;28;20021;-57
2022/10/20 06:58:29;;;;;;;10.93;7.07;;;11.70;99.90;;;;;;5046927;28;20025;-59
2022/10/20 07:01:19;;;;;;;17.67;8.27;;;11.70;99.90;;;;;;5045635;28;20039;-60
2022/10/20 07:03:46;;;;;;;16.27;6.82;;;11.70;99.90;;;;;;5033041;28;20044;-57
2022/10/20 07:06:33;;;;;;;14.43;6.80;;;11.70;99.90;;;;;;5047234;28;20595;-58
2022/10/20 07:08:59;;;;;;;14.05;6.57;;;11.70;99.90;;;;;;5048916;28;20017;-57
2022/10/20 07:11:28;;;;;;;13.07;6.80;;;11.80;99.90;;;;;;5047540;28;20048;-58
2022/10/20 07:13:53;;;;;;;19.00;6.78;;;11.80;99.90;;;;;;5044235;28;20032;-61
2022/10/20 07:16:22;;;;;;;13.80;8.73;;;11.80;99.90;;;;;;5024235;28;20518;-60
2022/10/20 07:18:48;;;;;;;13.88;6.95;;;11.80;99.90;;;;;;5049670;28;20017;-62
2022/10/20 07:21:20;;;;;;;22.40;7.32;;;11.90;99.90;;;;;;5051450;28;20018;-60
2022/10/20 07:23:46;;;;;;;20.70;7.43;;;11.90;99.90;;;;;;5044759;28;20029;-58
2022/10/20 07:26:16;;;;;;;12.15;7.90;;;11.90;99.90;;;;;;5045685;28;20021;-59
2022/10/20 07:28:44;;;;;;;20.25;7.50;;;11.90;99.90;;;;;;5048786;28;20340;-60
2022/10/20 07:31:21;;;;;;;15.43;7.15;;;12.00;99.90;;;;;;5047872;28;20028;-59
2022/10/20 07:33:47;;;;;;;15.60;7.72;;;12.10;99.90;;;;;;5048922;28;20029;-60
2022/10/20 07:36:22;;;;;;;24.17;7.18;;;12.10;99.90;;;;;;5048766;28;20466;-59
2022/10/20 07:38:49;;;;;;;11.85;7.45;;;12.10;99.90;;;;;;5049133;28;20047;-60
2022/10/20 07:41:15;;;;;;;18.35;7.38;;;12.10;99.90;;;;;;5049229;28;20029;-61
2022/10/20 07:43:41;;;;;;;22.42;8.02;;;12.20;99.90;;;;;;5048442;28;20140;-59
2022/10/20 07:46:08;;;;;;;16.02;6.88;;;12.20;99.90;;;;;;5047965;28;20033;-57
2022/10/20 07:48:33;;;;;;;16.20;7.03;;;12.20;99.90;;;;;;5048806;28;20033;-58
2022/10/20 07:51:20;;;;;;;12.13;6.75;;;12.30;99.90;;;;;;5049558;28;20494;-57
2022/10/20 07:53:47;;;;;;;12.57;7.80;;;12.30;99.90;;;;;;5049395;28;20113;-61
2022/10/20 07:56:13;;;;;;;19.70;7.30;;;12.40;99.90;;;;;;5049218;28;20061;-59
2022/10/20 07:58:40;;;;;;;14.68;6.82;;;12.40;99.90;;;;;;5050246;28;20044;-56
2022/10/20 08:01:05;;;;;;;25.75;7.78;;;12.50;99.90;;;;;;5049366;28;20018;-58
2022/10/20 08:03:31;;;;;;;14.35;7.00;;;12.50;99.90;;;;;;5032401;28;20036;-61
2022/10/20 08:05:56;;;;;;;14.40;6.72;;;12.50;99.90;;;;;;5050598;28;20036;-61
2022/10/20 08:08:22;;;;;;;14.65;7.85;;;12.50;99.90;;;;;;5048514;28;20422;-57
2022/10/20 08:10:48;;;;;;;17.02;7.95;;;12.50;99.90;;;;;;5050440;28;20450;-60
2022/10/20 08:13:13;;;;;;;12.90;7.82;;;12.50;99.90;;;;;;5050359;28;20029;-62
2022/10/20 08:15:39;;;;;;;25.83;7.53;;;12.60;99.90;;;;;;5050915;28;20048;-59
2022/10/20 08:18:04;;;;;;;15.40;7.53;;;12.60;99.90;;;;;;5049724;28;20490;-60
2022/10/20 08:20:31;;;;;;;23.33;8.52;;;12.60;99.90;;;;;;5050082;28;20025;-62
2022/10/20 08:22:57;;;;;;;15.40;8.73;;;12.60;99.90;;;;;;5052638;28;20071;-58
2022/10/20 08:25:23;;;;;;;33.35;9.20;;;12.60;99.90;;;;;;5053839;28;20033;-62
2022/10/20 08:27:48;;;;;;;20.13;8.27;;;12.60;99.90;;;;;;5056053;28;20052;-62
2022/10/20 08:30:14;;;;;;;16.73;7.90;;;12.70;99.90;;;;;;5052775;28;20063;-61
2022/10/20 08:32:40;;;;;;;18.20;7.25;;;12.80;99.90;;;;;;5053376;28;20487;-58
2022/10/20 08:35:06;;;;;;;18.27;8.00;;;12.80;99.90;;;;;;5053922;28;20028;-57
2022/10/20 08:37:32;;;;;;;14.60;7.40;;;12.70;99.90;;;;;;5053548;28;20017;-59
2022/10/20 08:39:57;;;;;;;125.47;18.02;;;12.70;99.90;;;;;;5053794;28;20445;-59
2022/10/20 08:42:23;;;;;;;31.25;8.98;;;12.70;99.90;;;;;;5053690;28;20486;-57
2022/10/20 08:44:49;;;;;;;12.90;8.30;;;12.80;99.90;;;;;;5053490;28;20017;-59
2022/10/20 08:47:28;;;;;;;17.05;7.43;;;12.80;99.90;;;;;;5052783;28;20126;-58
2022/10/20 08:49:54;;;;;;;16.92;7.32;;;12.90;99.90;;;;;;5052930;28;20394;-60
2022/10/20 08:52:22;;;;;;;16.27;8.43;;;12.80;99.90;;;;;;5053263;28;20025;-62
2022/10/20 08:54:54;;;;;;;16.98;7.47;;;12.70;99.90;;;;;;5053341;28;20067;-62
2022/10/20 08:57:30;;;;;;;11.77;6.53;;;12.70;99.90;;;;;;5053185;28;20479;-61
2022/10/20 09:00:11;;;;;;;17.90;7.93;;;12.70;99.90;;;;;;5045857;28;20430;-59
2022/10/20 09:02:36;;;;;;;12.38;7.07;;;12.60;99.90;;;;;;5048604;28;20036;-58
2022/10/20 09:05:05;;;;;;;17.73;8.25;;;12.70;99.90;;;;;;5053098;28;20063;-59
2022/10/20 09:07:33;;;;;;;15.02;8.38;;;12.70;99.90;;;;;;5052856;28;20025;-57
2022/10/20 09:10:24;;;;;;;20.67;7.90;;;12.70;99.90;;;;;;5053162;28;20029;-59
2022/10/20 09:12:51;;;;;;;18.83;8.32;;;12.80;99.90;;;;;;5048057;28;20044;-58
2022/10/20 09:15:18;;;;;;;21.40;7.85;;;12.80;99.90;;;;;;5051894;28;20025;-59
2022/10/20 09:17:55;;;;;;;15.55;8.48;;;12.80;99.90;;;;;;5053088;28;20025;-62
2022/10/20 09:20:29;;;;;;;16.92;7.72;;;12.90;99.90;;;;;;5055975;28;20025;-62
2022/10/20 09:22:55;;;;;;;22.83;8.30;;;12.90;99.90;;;;;;5053819;28;20032;-60
2022/10/20 09:25:24;;;;;;;13.80;7.80;;;13.00;99.90;;;;;;5053148;28;20041;-61
2022/10/20 09:27:51;;;;;;;11.52;8.13;;;13.00;99.90;;;;;;5052995;28;20560;-61
2022/10/20 09:30:34;;;;;;;12.73;7.47;;;13.00;99.90;;;;;;5052160;28;20116;-62
2022/10/20 09:33:18;;;;;;;14.20;7.57;;;13.10;99.90;;;;;;5046108;28;20025;-60
2022/10/20 09:35:47;;;;;;;16.38;7.75;;;13.00;99.90;;;;;;5048456;28;20047;-62
2022/10/20 09:38:21;;;;;;;18.98;8.52;;;13.00;99.90;;;;;;5052479;28;20025;-61
2022/10/20 09:41:24;;;;;;;12.98;8.10;;;13.00;99.90;;;;;;5052800;28;20033;-60
2022/10/20 09:44:03;;;;;;;18.02;8.15;;;13.10;99.90;;;;;;5046516;28;20037;-62
2022/10/20 09:46:35;;;;;;;20.38;8.50;;;13.20;99.90;;;;;;5052183;28;20079;-61
2022/10/20 09:49:01;;;;;;;16.70;8.73;;;13.20;99.90;;;;;;5052529;28;20101;-63
2022/10/20 09:51:29;;;;;;;14.48;7.78;;;13.20;99.90;;;;;;5052349;28;20111;-62
2022/10/20 09:54:04;;;;;;;19.83;8.38;;;13.20;99.90;;;;;;5052126;28;20487;-63
2022/10/20 09:56:39;;;;;;;20.15;9.70;;;13.20;99.90;;;;;;5052188;28;20025;-61
2022/10/20 09:59:26;;;;;;;25.90;8.65;;;13.20;99.90;;;;;;5050607;28;20103;-62
2022/10/20 10:01:53;;;;;;;23.40;9.25;;;13.20;99.90;;;;;;5052012;28;20021;-61
2022/10/20 10:04:36;;;;;;;19.83;10.07;;;13.10;99.90;;;;;;5033965;28;20025;-61
2022/10/20 10:07:05;;;;;;;17.70;9.68;;;13.00;99.90;;;;;;5046733;28;20025;-61
2022/10/20 10:09:36;;;;;;;19.48;10.70;;;12.90;99.90;;;;;;5052498;28;20025;-62
2022/10/20 10:12:22;;;;;;;29.95;10.60;;;13.00;99.90;;;;;;5051003;28;20100;-61
2022/10/20 10:15:06;;;;;;;20.00;9.98;;;13.10;99.90;;;;;;5051122;28;20086;-62
2022/10/20 10:17:38;;;;;;;18.35;10.13;;;13.00;99.90;;;;;;5053813;28;20033;-62
2022/10/20 10:20:26;;;;;;;22.45;10.65;;;13.00;99.90;;;;;;5051744;28;20021;-56
2022/10/20 10:23:05;;;;;;;32.33;10.77;;;13.10;99.90;;;;;;5047539;28;20099;-61
2022/10/20 10:25:30;;;;;;;31.40;10.32;;;13.10;99.90;;;;;;5051681;28;20036;-60
2022/10/20 10:28:07;;;;;;;22.55;10.15;;;13.10;99.90;;;;;;5050446;28;20074;-59
2022/10/20 10:30:38;;;;;;;20.20;10.68;;;13.00;99.90;;;;;;5051758;28;20025;-62
2022/10/20 10:33:24;;;;;;;25.00;11.45;;;13.00;99.90;;;;;;5051474;28;20024;-59
2022/10/20 10:35:51;;;;;;;19.58;10.73;;;13.00;99.90;;;;;;5051326;28;20116;-59
2022/10/20 10:38:16;;;;;;;36.03;12.70;;;13.00;99.90;;;;;;5051207;28;20027;-58
2022/10/20 10:41:16;;;;;;;25.83;14.13;;;13.00;99.90;;;;;;5051560;28;20183;-61
2022/10/20 10:44:13;;;;;;;30.98;13.77;;;13.00;99.90;;;;;;5029385;28;20434;-62
2022/10/20 10:47:03;;;;;;;58.83;16.33;;;12.90;99.90;;;;;;5045266;28;20487;-60
2022/10/20 10:49:37;;;;;;;26.00;13.75;;;13.00;99.90;;;;;;5048970;28;20078;-59
2022/10/20 10:52:18;;;;;;;27.55;14.65;;;13.00;99.90;;;;;;5050853;28;20483;-61
2022/10/20 10:54:56;;;;;;;34.05;14.23;;;12.90;99.90;;;;;;5049741;28;20608;-59
2022/10/20 10:57:41;;;;;;;33.55;15.32;;;12.90;99.90;;;;;;5044763;28;20025;-60
2022/10/20 11:00:18;;;;;;;27.73;15.13;;;12.90;99.90;;;;;;5051245;28;20017;-59
2022/10/20 11:03:13;;;;;;;31.17;15.65;;;12.80;99.90;;;;;;5050774;28;20028;-62
2022/10/20 11:05:56;;;;;;;29.65;15.70;;;12.80;99.90;;;;;;5050887;28;20491;-61
2022/10/20 11:08:37;;;;;;;35.40;16.38;;;12.90;99.90;;;;;;5050488;28;20033;-59
2022/10/20 11:11:32;;;;;;;36.15;16.75;;;12.90;99.90;;;;;;5050262;28;20071;-58
2022/10/20 11:14:06;;;;;;;;;;;12.90;99.90;;;;;;5050606;28;20083;-60
2022/10/20 11:16:39;;;;;;;30.77;15.87;;;12.90;99.90;;;;;;5050045;28;19995;-59
2022/10/20 11:19:26;;;;;;;39.28;17.33;;;12.90;99.90;;;;;;5050558;28;20017;-60
2022/10/20 11:22:10;;;;;;;33.75;18.10;;;12.90;99.90;;;;;;5050604;28;20390;-61
2022/10/20 11:25:08;;;;;;;35.35;16.65;;;12.90;99.90;;;;;;5044257;28;20071;-62
2022/10/20 11:27:36;;;;;;;42.42;17.48;;;12.90;99.90;;;;;;5039369;28;20041;-60
2022/10/20 11:30:15;;;;;;;47.80;18.30;;;12.90;99.90;;;;;;5050237;28;20017;-61
2022/10/20 11:33:00;;;;;;;37.70;18.17;;;12.90;99.90;;;;;;5050585;28;20035;-62
2022/10/20 11:35:41;;;;;;;35.88;18.50;;;13.00;99.90;;;;;;5044892;28;20029;-59
2022/10/20 11:38:19;;;;;;;32.05;18.45;;;12.90;99.90;;;;;;5050013;28;20104;-61
2022/10/20 11:40:53;;;;;;;38.85;19.25;;;13.00;99.90;;;;;;5050430;28;20031;-62
2022/10/20 11:43:25;;;;;;;45.53;20.25;;;13.00;99.90;;;;;;5050445;28;20048;-60
2022/10/20 11:45:58;;;;;;;39.95;20.88;;;13.00;99.90;;;;;;5050208;28;20044;-60
2022/10/20 11:48:37;;;;;;;40.58;19.67;;;13.10;99.90;;;;;;5050088;28;20064;-60
2022/10/20 11:51:22;;;;;;;42.00;21.05;;;13.00;99.90;;;;;;5057495;23;20056;-65
2022/10/20 11:53:59;;;;;;;;;;;13.10;99.90;;;;;;5043214;28;20036;-63
2022/10/20 11:56:39;;;;;;;39.53;19.35;;;13.00;99.90;;;;;;5041267;28;19916;-64
2022/10/20 11:59:29;;;;;;;42.10;20.02;;;13.00;99.90;;;;;;5047469;28;20032;-64
2022/10/20 12:02:21;;;;;;;39.58;19.75;;;13.00;99.90;;;;;;5028366;28;20057;-65
2022/10/20 12:05:07;;;;;;;43.25;20.23;;;13.00;99.90;;;;;;4997074;28;20041;-66
2022/10/20 12:07:51;;;;;;;46.83;19.83;;;12.90;99.90;;;;;;5028358;28;20025;-64
2022/10/20 12:10:30;;;;;;;35.60;18.55;;;12.90;99.90;;;;;;5027839;28;20109;-64
2022/10/20 12:13:18;;;;;;;41.45;20.48;;;12.90;99.90;;;;;;5030929;28;20030;-64
2022/10/20 12:15:49;;;;;;;38.30;20.42;;;12.80;99.90;;;;;;5021959;28;20029;-64
2022/10/20 12:18:25;;;;;;;46.85;21.02;;;12.80;99.90;;;;;;5012649;28;20590;-64
2022/10/20 12:21:00;;;;;;;39.08;20.27;;;12.70;99.90;;;;;;5012448;28;20098;-64
2022/10/20 12:23:41;;;;;;;37.70;20.95;;;12.80;99.90;;;;;;5027424;28;20022;-65
2022/10/20 12:26:29;;;;;;;42.10;20.17;;;12.70;99.90;;;;;;5030225;28;20364;-64
2022/10/20 12:29:30;;;;;;;41.65;21.02;;;12.80;99.90;;;;;;5023833;28;20049;-64
2022/10/20 12:32:20;;;;;;;49.85;22.42;;;12.80;99.90;;;;;;5018926;28;20041;-65
2022/10/20 12:34:47;;;;;;;42.40;20.23;;;12.80;99.90;;;;;;5000854;28;20038;-64
2022/10/20 12:37:25;;;;;;;65.20;23.00;;;12.80;99.90;;;;;;5005655;28;20409;-64
2022/10/20 12:40:11;;;;;;;53.50;22.77;;;12.80;99.90;;;;;;5003404;28;20022;-63
2022/10/20 12:42:44;;;;;;;62.38;23.25;;;12.90;99.90;;;;;;4993989;28;20330;-63
2022/10/20 12:45:32;;;;;;;45.97;23.38;;;13.00;99.90;;;;;;5011942;28;20558;-63
2022/10/20 12:48:00;;;;;;;50.72;23.35;;;13.10;99.90;;;;;;5016311;28;20076;-64
2022/10/20 12:50:32;;;;;;;48.20;23.30;;;13.10;99.90;;;;;;5012767;28;20053;-64
2022/10/20 12:53:11;;;;;;;54.85;24.70;;;13.20;99.90;;;;;;5023630;28;20108;-64
2022/10/20 12:55:38;;;;;;;55.08;23.25;;;13.20;99.90;;;;;;5025859;28;20092;-64
2022/10/20 12:58:31;;;;;;;65.05;25.02;;;13.20;99.90;;;;;;5026118;28;20033;-63